sensor_id;sensor_type;location;lat;lon;timestamp;P1;durP1;ratioP1;P2;durP2;ratioP2
24153;SDS011;12312;53.362;-1.518;2023-09-30T00:02:00;5.72;;;1.20;;
24153;SDS011;12312;53.362;-1.518;2023-09-30T00:04:44;6.93;;;1.50;;
24153;SDS011;12312;53.362;-1.518;2023-09-30T00:07:28;8.85;;;1.30;;
24153;SDS011;12312;53.362;-1.518;2023-09-30T00:10:12;10.70;;;1.63;;
24153;SDS011;12312;53.362;-1.518;2023-09-30T00:12:57;9.40;;;1.35;;
24153;SDS011;12312;53.362;-1.518;2023-09-30T00:15:42;7.78;;;1.65;;
24153;SDS011;12312;53.362;-1.518;2023-09-30T00:18:26;9.63;;;1.30;;
24153;SDS011;12312;53.362;-1.518;2023-09-30T00:21:11;9.95;;;1.98;;
24153;SDS011;12312;53.362;-1.518;2023-09-30T00:23:55;6.25;;;1.65;;
24153;SDS011;12312;53.362;-1.518;2023-09-30T00:26:40;4.63;;;1.08;;
24153;SDS011;12312;53.362;-1.518;2023-09-30T00:29:24;3.40;;;1.08;;
24153;SDS011;12312;53.362;-1.518;2023-09-30T00:32:08;10.07;;;2.00;;
24153;SDS011;12312;53.362;-1.518;2023-09-30T00:34:52;6.88;;;2.25;;
24153;SDS011;12312;53.362;-1.518;2023-09-30T00:37:37;9.20;;;1.52;;
24153;SDS011;12312;53.362;-1.518;2023-09-30T00:40:22;7.95;;;1.90;;
24153;SDS011;12312;53.362;-1.518;2023-09-30T00:43:06;12.43;;;1.63;;
24153;SDS011;12312;53.362;-1.518;2023-09-30T00:46:27;6.13;;;1.52;;
24153;SDS011;12312;53.362;-1.518;2023-09-30T00:49:06;8.40;;;2.00;;
24153;SDS011;12312;53.362;-1.518;2023-09-30T00:51:51;9.10;;;1.98;;
24153;SDS011;12312;53.362;-1.518;2023-09-30T00:54:35;8.80;;;1.65;;
24153;SDS011;12312;53.362;-1.518;2023-09-30T01:00:06;10.20;;;1.70;;
24153;SDS011;12312;53.362;-1.518;2023-09-30T01:02:51;4.70;;;1.50;;
24153;SDS011;12312;53.362;-1.518;2023-09-30T01:05:36;7.07;;;1.83;;
24153;SDS011;12312;53.362;-1.518;2023-09-30T01:08:20;9.07;;;1.67;;
24153;SDS011;12312;53.362;-1.518;2023-09-30T01:11:05;11.30;;;1.55;;
24153;SDS011;12312;53.362;-1.518;2023-09-30T01:13:50;3.83;;;1.70;;
24153;SDS011;12312;53.362;-1.518;2023-09-30T01:16:34;7.93;;;1.70;;
24153;SDS011;12312;53.362;-1.518;2023-09-30T01:19:18;6.82;;;1.30;;
24153;SDS011;12312;53.362;-1.518;2023-09-30T01:22:02;8.27;;;1.83;;
24153;SDS011;12312;53.362;-1.518;2023-09-30T01:24:49;12.48;;;1.63;;
24153;SDS011;12312;53.362;-1.518;2023-09-30T01:27:33;7.50;;;1.13;;
24153;SDS011;12312;53.362;-1.518;2023-09-30T01:30:17;7.95;;;1.50;;
24153;SDS011;12312;53.362;-1.518;2023-09-30T01:33:02;7.20;;;1.83;;
24153;SDS011;12312;53.362;-1.518;2023-09-30T01:35:47;6.07;;;2.13;;
24153;SDS011;12312;53.362;-1.518;2023-09-30T01:38:31;12.48;;;2.40;;
24153;SDS011;12312;53.362;-1.518;2023-09-30T01:41:15;6.93;;;1.88;;
24153;SDS011;12312;53.362;-1.518;2023-09-30T01:44:00;4.47;;;1.30;;
24153;SDS011;12312;53.362;-1.518;2023-09-30T01:46:44;6.78;;;1.80;;
24153;SDS011;12312;53.362;-1.518;2023-09-30T01:49:28;6.40;;;2.03;;
24153;SDS011;12312;53.362;-1.518;2023-09-30T01:52:11;7.63;;;1.98;;
24153;SDS011;12312;53.362;-1.518;2023-09-30T01:54:56;11.23;;;1.55;;
24153;SDS011;12312;53.362;-1.518;2023-09-30T01:57:39;12.18;;;2.97;;
24153;SDS011;12312;53.362;-1.518;2023-09-30T02:00:24;9.82;;;1.38;;
24153;SDS011;12312;53.362;-1.518;2023-09-30T02:03:07;7.18;;;1.58;;
24153;SDS011;12312;53.362;-1.518;2023-09-30T02:05:51;5.40;;;1.13;;
24153;SDS011;12312;53.362;-1.518;2023-09-30T02:08:35;8.77;;;1.50;;
24153;SDS011;12312;53.362;-1.518;2023-09-30T02:11:20;10.70;;;1.52;;
24153;SDS011;12312;53.362;-1.518;2023-09-30T02:14:03;4.57;;;1.20;;
24153;SDS011;12312;53.362;-1.518;2023-09-30T02:16:49;6.22;;;1.58;;
24153;SDS011;12312;53.362;-1.518;2023-09-30T02:19:33;7.68;;;1.95;;
24153;SDS011;12312;53.362;-1.518;2023-09-30T02:22:17;6.18;;;2.03;;
24153;SDS011;12312;53.362;-1.518;2023-09-30T02:25:02;7.45;;;1.23;;
24153;SDS011;12312;53.362;-1.518;2023-09-30T02:27:46;10.00;;;1.67;;
24153;SDS011;12312;53.362;-1.518;2023-09-30T02:30:30;5.95;;;1.70;;
24153;SDS011;12312;53.362;-1.518;2023-09-30T02:33:14;9.25;;;1.52;;
24153;SDS011;12312;53.362;-1.518;2023-09-30T02:35:58;10.35;;;1.70;;
24153;SDS011;12312;53.362;-1.518;2023-09-30T02:38:42;6.20;;;1.40;;
24153;SDS011;12312;53.362;-1.518;2023-09-30T02:41:27;10.27;;;1.67;;
24153;SDS011;12312;53.362;-1.518;2023-09-30T02:44:11;6.97;;;2.08;;
24153;SDS011;12312;53.362;-1.518;2023-09-30T02:46:56;7.55;;;1.70;;
24153;SDS011;12312;53.362;-1.518;2023-09-30T02:49:40;15.20;;;2.13;;
24153;SDS011;12312;53.362;-1.518;2023-09-30T02:52:24;6.57;;;1.38;;
24153;SDS011;12312;53.362;-1.518;2023-09-30T02:55:09;8.25;;;1.77;;
24153;SDS011;12312;53.362;-1.518;2023-09-30T02:57:54;9.20;;;1.67;;
24153;SDS011;12312;53.362;-1.518;2023-09-30T03:00:38;8.68;;;1.58;;
24153;SDS011;12312;53.362;-1.518;2023-09-30T03:03:22;9.48;;;1.40;;
24153;SDS011;12312;53.362;-1.518;2023-09-30T03:06:09;4.68;;;1.13;;
24153;SDS011;12312;53.362;-1.518;2023-09-30T03:08:54;4.78;;;1.52;;
24153;SDS011;12312;53.362;-1.518;2023-09-30T03:11:38;8.25;;;1.63;;
24153;SDS011;12312;53.362;-1.518;2023-09-30T03:14:22;5.57;;;1.38;;
24153;SDS011;12312;53.362;-1.518;2023-09-30T03:17:06;9.13;;;1.90;;
24153;SDS011;12312;53.362;-1.518;2023-09-30T03:19:55;10.50;;;1.90;;
24153;SDS011;12312;53.362;-1.518;2023-09-30T03:22:41;12.63;;;1.80;;
24153;SDS011;12312;53.362;-1.518;2023-09-30T03:25:26;6.40;;;1.55;;
24153;SDS011;12312;53.362;-1.518;2023-09-30T03:28:10;9.18;;;1.65;;
24153;SDS011;12312;53.362;-1.518;2023-09-30T03:30:54;12.13;;;1.67;;
24153;SDS011;12312;53.362;-1.518;2023-09-30T03:33:40;3.53;;;1.30;;
24153;SDS011;12312;53.362;-1.518;2023-09-30T03:36:24;5.55;;;1.58;;
24153;SDS011;12312;53.362;-1.518;2023-09-30T03:39:08;6.32;;;1.45;;
24153;SDS011;12312;53.362;-1.518;2023-09-30T03:41:53;7.78;;;1.40;;
24153;SDS011;12312;53.362;-1.518;2023-09-30T03:44:38;8.60;;;1.90;;
24153;SDS011;12312;53.362;-1.518;2023-09-30T03:47:22;8.68;;;2.03;;
24153;SDS011;12312;53.362;-1.518;2023-09-30T03:50:07;17.05;;;2.05;;
24153;SDS011;12312;53.362;-1.518;2023-09-30T03:53:05;9.35;;;1.48;;
24153;SDS011;12312;53.362;-1.518;2023-09-30T03:55:52;10.75;;;2.00;;
24153;SDS011;12312;53.362;-1.518;2023-09-30T03:58:36;9.13;;;1.70;;
24153;SDS011;12312;53.362;-1.518;2023-09-30T04:01:22;8.48;;;1.40;;
24153;SDS011;12312;53.362;-1.518;2023-09-30T04:04:07;13.05;;;2.15;;
24153;SDS011;12312;53.362;-1.518;2023-09-30T04:06:53;5.20;;;1.25;;
24153;SDS011;12312;53.362;-1.518;2023-09-30T04:09:37;5.93;;;1.60;;
24153;SDS011;12312;53.362;-1.518;2023-09-30T04:12:22;5.78;;;1.17;;
24153;SDS011;12312;53.362;-1.518;2023-09-30T04:15:09;7.53;;;1.48;;
24153;SDS011;12312;53.362;-1.518;2023-09-30T04:17:56;7.43;;;1.55;;
24153;SDS011;12312;53.362;-1.518;2023-09-30T04:20:40;10.35;;;1.88;;
24153;SDS011;12312;53.362;-1.518;2023-09-30T04:23:25;4.55;;;1.52;;
24153;SDS011;12312;53.362;-1.518;2023-09-30T04:26:09;12.73;;;1.75;;
24153;SDS011;12312;53.362;-1.518;2023-09-30T04:28:53;7.97;;;2.05;;
24153;SDS011;12312;53.362;-1.518;2023-09-30T04:31:37;7.35;;;1.38;;
24153;SDS011;12312;53.362;-1.518;2023-09-30T04:34:23;5.50;;;1.58;;
24153;SDS011;12312;53.362;-1.518;2023-09-30T04:37:07;5.50;;;1.40;;
24153;SDS011;12312;53.362;-1.518;2023-09-30T04:39:52;5.45;;;2.25;;
24153;SDS011;12312;53.362;-1.518;2023-09-30T04:42:37;11.00;;;1.98;;
24153;SDS011;12312;53.362;-1.518;2023-09-30T04:45:21;6.78;;;1.88;;
24153;SDS011;12312;53.362;-1.518;2023-09-30T04:48:07;8.68;;;2.15;;
24153;SDS011;12312;53.362;-1.518;2023-09-30T04:50:52;8.52;;;1.83;;
24153;SDS011;12312;53.362;-1.518;2023-09-30T04:53:35;7.13;;;1.83;;
24153;SDS011;12312;53.362;-1.518;2023-09-30T04:56:20;6.75;;;1.35;;
24153;SDS011;12312;53.362;-1.518;2023-09-30T04:59:04;10.48;;;1.73;;
24153;SDS011;12312;53.362;-1.518;2023-09-30T05:01:48;6.75;;;1.83;;
24153;SDS011;12312;53.362;-1.518;2023-09-30T05:04:32;6.60;;;1.70;;
24153;SDS011;12312;53.362;-1.518;2023-09-30T05:07:16;12.23;;;2.05;;
24153;SDS011;12312;53.362;-1.518;2023-09-30T05:10:00;7.07;;;1.98;;
24153;SDS011;12312;53.362;-1.518;2023-09-30T05:12:44;7.07;;;1.42;;
24153;SDS011;12312;53.362;-1.518;2023-09-30T05:15:31;8.55;;;2.13;;
24153;SDS011;12312;53.362;-1.518;2023-09-30T05:18:18;5.32;;;1.92;;
24153;SDS011;12312;53.362;-1.518;2023-09-30T05:21:02;7.40;;;1.75;;
24153;SDS011;12312;53.362;-1.518;2023-09-30T05:23:47;8.93;;;1.85;;
24153;SDS011;12312;53.362;-1.518;2023-09-30T05:26:31;10.52;;;1.88;;
24153;SDS011;12312;53.362;-1.518;2023-09-30T05:29:16;7.07;;;1.90;;
24153;SDS011;12312;53.362;-1.518;2023-09-30T05:32:00;13.75;;;2.25;;
24153;SDS011;12312;53.362;-1.518;2023-09-30T05:34:44;7.47;;;2.10;;
24153;SDS011;12312;53.362;-1.518;2023-09-30T05:37:28;7.72;;;2.00;;
24153;SDS011;12312;53.362;-1.518;2023-09-30T05:40:12;9.75;;;1.83;;
24153;SDS011;12312;53.362;-1.518;2023-09-30T05:43:07;6.93;;;2.17;;
24153;SDS011;12312;53.362;-1.518;2023-09-30T05:45:51;6.45;;;1.58;;
24153;SDS011;12312;53.362;-1.518;2023-09-30T05:48:38;8.98;;;1.60;;
24153;SDS011;12312;53.362;-1.518;2023-09-30T05:51:23;7.88;;;1.55;;
24153;SDS011;12312;53.362;-1.518;2023-09-30T05:54:07;7.00;;;1.40;;
24153;SDS011;12312;53.362;-1.518;2023-09-30T05:56:55;5.88;;;1.80;;
24153;SDS011;12312;53.362;-1.518;2023-09-30T05:59:40;6.40;;;1.23;;
24153;SDS011;12312;53.362;-1.518;2023-09-30T06:02:24;8.60;;;1.95;;
24153;SDS011;12312;53.362;-1.518;2023-09-30T06:05:08;10.90;;;2.50;;
24153;SDS011;12312;53.362;-1.518;2023-09-30T06:07:52;11.73;;;2.40;;
24153;SDS011;12312;53.362;-1.518;2023-09-30T06:10:39;4.90;;;1.50;;
24153;SDS011;12312;53.362;-1.518;2023-09-30T06:13:26;5.32;;;1.60;;
24153;SDS011;12312;53.362;-1.518;2023-09-30T06:16:12;8.82;;;1.92;;
24153;SDS011;12312;53.362;-1.518;2023-09-30T06:18:56;6.47;;;2.28;;
24153;SDS011;12312;53.362;-1.518;2023-09-30T06:21:40;8.43;;;1.67;;
24153;SDS011;12312;53.362;-1.518;2023-09-30T06:24:24;6.93;;;1.90;;
24153;SDS011;12312;53.362;-1.518;2023-09-30T06:27:08;5.78;;;2.03;;
24153;SDS011;12312;53.362;-1.518;2023-09-30T06:29:56;9.35;;;2.80;;
24153;SDS011;12312;53.362;-1.518;2023-09-30T06:32:41;7.72;;;1.83;;
24153;SDS011;12312;53.362;-1.518;2023-09-30T06:35:26;6.00;;;1.60;;
24153;SDS011;12312;53.362;-1.518;2023-09-30T06:38:21;5.38;;;1.58;;
24153;SDS011;12312;53.362;-1.518;2023-09-30T06:41:05;6.25;;;1.80;;
24153;SDS011;12312;53.362;-1.518;2023-09-30T06:43:49;7.47;;;2.28;;
24153;SDS011;12312;53.362;-1.518;2023-09-30T06:46:35;5.20;;;1.75;;
24153;SDS011;12312;53.362;-1.518;2023-09-30T06:49:19;7.18;;;1.83;;
24153;SDS011;12312;53.362;-1.518;2023-09-30T06:52:03;8.77;;;1.88;;
24153;SDS011;12312;53.362;-1.518;2023-09-30T06:54:47;6.10;;;1.70;;
24153;SDS011;12312;53.362;-1.518;2023-09-30T06:57:32;7.75;;;2.03;;
24153;SDS011;12312;53.362;-1.518;2023-09-30T07:00:17;7.15;;;1.60;;
24153;SDS011;12312;53.362;-1.518;2023-09-30T07:03:01;8.82;;;2.28;;
24153;SDS011;12312;53.362;-1.518;2023-09-30T07:05:45;7.05;;;2.05;;
24153;SDS011;12312;53.362;-1.518;2023-09-30T07:08:33;8.27;;;1.77;;
24153;SDS011;12312;53.362;-1.518;2023-09-30T07:11:17;6.95;;;1.75;;
24153;SDS011;12312;53.362;-1.518;2023-09-30T07:14:01;3.58;;;1.42;;
24153;SDS011;12312;53.362;-1.518;2023-09-30T07:16:44;7.32;;;1.63;;
24153;SDS011;12312;53.362;-1.518;2023-09-30T07:19:29;11.38;;;2.38;;
24153;SDS011;12312;53.362;-1.518;2023-09-30T07:22:14;9.60;;;2.13;;
24153;SDS011;12312;53.362;-1.518;2023-09-30T07:24:59;10.57;;;2.05;;
24153;SDS011;12312;53.362;-1.518;2023-09-30T07:27:43;9.15;;;2.05;;
24153;SDS011;12312;53.362;-1.518;2023-09-30T07:30:31;4.65;;;1.50;;
24153;SDS011;12312;53.362;-1.518;2023-09-30T07:33:15;7.05;;;1.88;;
24153;SDS011;12312;53.362;-1.518;2023-09-30T07:35:59;7.30;;;2.25;;
24153;SDS011;12312;53.362;-1.518;2023-09-30T07:38:43;9.98;;;2.72;;
24153;SDS011;12312;53.362;-1.518;2023-09-30T07:41:27;14.95;;;2.40;;
24153;SDS011;12312;53.362;-1.518;2023-09-30T07:44:11;9.15;;;2.67;;
24153;SDS011;12312;53.362;-1.518;2023-09-30T07:46:55;9.57;;;2.97;;
24153;SDS011;12312;53.362;-1.518;2023-09-30T07:49:39;6.88;;;2.20;;
24153;SDS011;12312;53.362;-1.518;2023-09-30T07:52:23;11.85;;;2.42;;
24153;SDS011;12312;53.362;-1.518;2023-09-30T07:55:07;8.23;;;1.90;;
24153;SDS011;12312;53.362;-1.518;2023-09-30T07:57:53;9.32;;;2.38;;
24153;SDS011;12312;53.362;-1.518;2023-09-30T08:00:36;8.73;;;1.83;;
24153;SDS011;12312;53.362;-1.518;2023-09-30T08:03:21;7.97;;;2.20;;
24153;SDS011;12312;53.362;-1.518;2023-09-30T08:06:06;4.47;;;2.17;;
24153;SDS011;12312;53.362;-1.518;2023-09-30T08:08:52;10.77;;;2.22;;
24153;SDS011;12312;53.362;-1.518;2023-09-30T08:11:36;6.55;;;2.10;;
24153;SDS011;12312;53.362;-1.518;2023-09-30T08:14:20;5.47;;;1.70;;
24153;SDS011;12312;53.362;-1.518;2023-09-30T08:17:04;6.68;;;2.30;;
24153;SDS011;12312;53.362;-1.518;2023-09-30T08:19:48;9.07;;;2.40;;
24153;SDS011;12312;53.362;-1.518;2023-09-30T08:22:32;8.57;;;2.10;;
24153;SDS011;12312;53.362;-1.518;2023-09-30T08:25:16;6.75;;;2.08;;
24153;SDS011;12312;53.362;-1.518;2023-09-30T08:28:00;9.77;;;2.22;;
24153;SDS011;12312;53.362;-1.518;2023-09-30T08:30:44;5.72;;;1.60;;
24153;SDS011;12312;53.362;-1.518;2023-09-30T08:33:28;5.18;;;1.67;;
24153;SDS011;12312;53.362;-1.518;2023-09-30T08:36:14;10.70;;;2.05;;
24153;SDS011;12312;53.362;-1.518;2023-09-30T08:38:58;4.80;;;1.38;;
24153;SDS011;12312;53.362;-1.518;2023-09-30T08:41:42;10.95;;;2.17;;
24153;SDS011;12312;53.362;-1.518;2023-09-30T08:44:28;5.88;;;1.90;;
24153;SDS011;12312;53.362;-1.518;2023-09-30T08:47:13;9.53;;;1.90;;
24153;SDS011;12312;53.362;-1.518;2023-09-30T08:49:59;4.40;;;1.80;;
24153;SDS011;12312;53.362;-1.518;2023-09-30T08:52:49;5.80;;;1.52;;
24153;SDS011;12312;53.362;-1.518;2023-09-30T08:55:34;5.63;;;2.08;;
24153;SDS011;12312;53.362;-1.518;2023-09-30T08:58:19;6.82;;;1.50;;
24153;SDS011;12312;53.362;-1.518;2023-09-30T09:01:03;4.03;;;1.55;;
24153;SDS011;12312;53.362;-1.518;2023-09-30T09:03:47;8.05;;;1.70;;
24153;SDS011;12312;53.362;-1.518;2023-09-30T09:06:36;4.05;;;1.30;;
24153;SDS011;12312;53.362;-1.518;2023-09-30T09:09:20;5.88;;;1.65;;
24153;SDS011;12312;53.362;-1.518;2023-09-30T09:12:05;7.60;;;1.55;;
24153;SDS011;12312;53.362;-1.518;2023-09-30T09:15:01;4.03;;;1.35;;
24153;SDS011;12312;53.362;-1.518;2023-09-30T09:17:45;8.25;;;1.95;;
24153;SDS011;12312;53.362;-1.518;2023-09-30T09:20:29;7.82;;;2.33;;
24153;SDS011;12312;53.362;-1.518;2023-09-30T09:23:14;7.40;;;1.40;;
24153;SDS011;12312;53.362;-1.518;2023-09-30T09:25:59;7.72;;;1.60;;
24153;SDS011;12312;53.362;-1.518;2023-09-30T09:28:43;8.50;;;1.55;;
24153;SDS011;12312;53.362;-1.518;2023-09-30T09:31:34;6.65;;;2.05;;
24153;SDS011;12312;53.362;-1.518;2023-09-30T09:34:19;7.20;;;2.03;;
24153;SDS011;12312;53.362;-1.518;2023-09-30T09:37:21;6.20;;;1.15;;
24153;SDS011;12312;53.362;-1.518;2023-09-30T09:40:05;9.07;;;1.30;;
24153;SDS011;12312;53.362;-1.518;2023-09-30T09:42:51;6.88;;;1.48;;
24153;SDS011;12312;53.362;-1.518;2023-09-30T09:45:37;5.82;;;0.95;;
24153;SDS011;12312;53.362;-1.518;2023-09-30T09:48:22;7.15;;;1.27;;
24153;SDS011;12312;53.362;-1.518;2023-09-30T09:51:07;3.80;;;1.05;;
24153;SDS011;12312;53.362;-1.518;2023-09-30T09:53:53;5.18;;;1.30;;
24153;SDS011;12312;53.362;-1.518;2023-09-30T09:56:39;3.22;;;0.85;;
24153;SDS011;12312;53.362;-1.518;2023-09-30T09:59:23;5.80;;;1.20;;
24153;SDS011;12312;53.362;-1.518;2023-09-30T10:02:10;2.92;;;1.05;;
24153;SDS011;12312;53.362;-1.518;2023-09-30T10:04:58;5.68;;;1.30;;
24153;SDS011;12312;53.362;-1.518;2023-09-30T10:07:50;4.40;;;1.17;;
24153;SDS011;12312;53.362;-1.518;2023-09-30T10:10:37;7.88;;;1.10;;
24153;SDS011;12312;53.362;-1.518;2023-09-30T10:16:47;8.35;;;1.63;;
24153;SDS011;12312;53.362;-1.518;2023-09-30T10:19:32;5.47;;;1.15;;
24153;SDS011;12312;53.362;-1.518;2023-09-30T10:25:01;2.95;;;1.50;;
24153;SDS011;12312;53.362;-1.518;2023-09-30T10:31:22;5.10;;;1.20;;
24153;SDS011;12312;53.362;-1.518;2023-09-30T10:36:52;5.90;;;1.40;;
24153;SDS011;12312;53.362;-1.518;2023-09-30T10:40:19;4.30;;;1.33;;
24153;SDS011;12312;53.362;-1.518;2023-09-30T10:42:47;7.60;;;1.95;;
24153;SDS011;12312;53.362;-1.518;2023-09-30T10:53:55;4.57;;;1.60;;
24153;SDS011;12312;53.362;-1.518;2023-09-30T10:56:44;8.93;;;2.13;;
24153;SDS011;12312;53.362;-1.518;2023-09-30T10:59:29;9.63;;;1.77;;
24153;SDS011;12312;53.362;-1.518;2023-09-30T11:02:19;8.90;;;3.35;;
24153;SDS011;12312;53.362;-1.518;2023-09-30T11:05:09;2.90;;;1.70;;
24153;SDS011;12312;53.362;-1.518;2023-09-30T11:07:55;9.07;;;2.40;;
24153;SDS011;12312;53.362;-1.518;2023-09-30T11:10:49;6.80;;;2.20;;
24153;SDS011;12312;53.362;-1.518;2023-09-30T11:13:35;5.90;;;2.20;;
24153;SDS011;12312;53.362;-1.518;2023-09-30T11:16:19;8.50;;;2.08;;
24153;SDS011;12312;53.362;-1.518;2023-09-30T11:19:03;7.88;;;2.55;;
24153;SDS011;12312;53.362;-1.518;2023-09-30T11:21:48;5.63;;;2.20;;
24153;SDS011;12312;53.362;-1.518;2023-09-30T11:24:36;3.20;;;1.60;;
24153;SDS011;12312;53.362;-1.518;2023-09-30T11:27:23;6.47;;;1.40;;
24153;SDS011;12312;53.362;-1.518;2023-09-30T11:30:11;10.07;;;1.75;;
24153;SDS011;12312;53.362;-1.518;2023-09-30T11:32:59;4.28;;;1.30;;
24153;SDS011;12312;53.362;-1.518;2023-09-30T11:39:00;5.30;;;1.50;;
24153;SDS011;12312;53.362;-1.518;2023-09-30T11:41:47;8.65;;;1.63;;
24153;SDS011;12312;53.362;-1.518;2023-09-30T11:44:31;3.53;;;1.50;;
24153;SDS011;12312;53.362;-1.518;2023-09-30T11:47:15;5.20;;;1.30;;
24153;SDS011;12312;53.362;-1.518;2023-09-30T11:50:01;5.53;;;1.60;;
24153;SDS011;12312;53.362;-1.518;2023-09-30T11:52:48;3.60;;;1.65;;
24153;SDS011;12312;53.362;-1.518;2023-09-30T11:55:33;9.48;;;1.65;;
24153;SDS011;12312;53.362;-1.518;2023-09-30T11:58:17;6.65;;;1.45;;
24153;SDS011;12312;53.362;-1.518;2023-09-30T12:01:03;5.60;;;1.70;;
24153;SDS011;12312;53.362;-1.518;2023-09-30T12:03:51;4.68;;;1.27;;
24153;SDS011;12312;53.362;-1.518;2023-09-30T12:06:35;8.98;;;1.67;;
24153;SDS011;12312;53.362;-1.518;2023-09-30T12:09:21;7.22;;;1.85;;
24153;SDS011;12312;53.362;-1.518;2023-09-30T12:12:06;7.97;;;1.40;;
24153;SDS011;12312;53.362;-1.518;2023-09-30T12:14:54;7.93;;;1.83;;
24153;SDS011;12312;53.362;-1.518;2023-09-30T12:17:38;7.35;;;1.98;;
24153;SDS011;12312;53.362;-1.518;2023-09-30T12:20:23;9.60;;;2.35;;
24153;SDS011;12312;53.362;-1.518;2023-09-30T12:23:07;8.40;;;1.90;;
24153;SDS011;12312;53.362;-1.518;2023-09-30T12:25:51;10.43;;;2.25;;
24153;SDS011;12312;53.362;-1.518;2023-09-30T12:28:35;10.07;;;1.95;;
24153;SDS011;12312;53.362;-1.518;2023-09-30T12:31:19;8.05;;;2.60;;
24153;SDS011;12312;53.362;-1.518;2023-09-30T12:34:04;7.40;;;2.15;;
24153;SDS011;12312;53.362;-1.518;2023-09-30T12:36:48;6.07;;;2.00;;
24153;SDS011;12312;53.362;-1.518;2023-09-30T12:39:33;8.88;;;2.10;;
24153;SDS011;12312;53.362;-1.518;2023-09-30T12:42:17;9.38;;;2.28;;
24153;SDS011;12312;53.362;-1.518;2023-09-30T12:45:02;7.15;;;2.20;;
24153;SDS011;12312;53.362;-1.518;2023-09-30T12:47:47;5.80;;;1.88;;
24153;SDS011;12312;53.362;-1.518;2023-09-30T12:50:32;5.38;;;1.73;;
24153;SDS011;12312;53.362;-1.518;2023-09-30T12:53:16;12.82;;;2.63;;
24153;SDS011;12312;53.362;-1.518;2023-09-30T12:56:00;3.55;;;1.92;;
24153;SDS011;12312;53.362;-1.518;2023-09-30T12:58:44;7.25;;;1.80;;
24153;SDS011;12312;53.362;-1.518;2023-09-30T13:01:28;9.15;;;1.63;;
24153;SDS011;12312;53.362;-1.518;2023-09-30T13:04:12;8.98;;;2.53;;
24153;SDS011;12312;53.362;-1.518;2023-09-30T13:06:56;8.45;;;2.00;;
24153;SDS011;12312;53.362;-1.518;2023-09-30T13:09:40;5.50;;;2.08;;
24153;SDS011;12312;53.362;-1.518;2023-09-30T13:12:26;4.97;;;2.08;;
24153;SDS011;12312;53.362;-1.518;2023-09-30T13:15:11;7.65;;;2.05;;
24153;SDS011;12312;53.362;-1.518;2023-09-30T13:17:57;7.53;;;1.98;;
24153;SDS011;12312;53.362;-1.518;2023-09-30T13:20:43;4.75;;;2.20;;
24153;SDS011;12312;53.362;-1.518;2023-09-30T13:23:27;4.47;;;1.63;;
24153;SDS011;12312;53.362;-1.518;2023-09-30T13:26:11;6.03;;;1.80;;
24153;SDS011;12312;53.362;-1.518;2023-09-30T13:28:55;8.07;;;2.33;;
24153;SDS011;12312;53.362;-1.518;2023-09-30T13:31:39;7.22;;;2.35;;
24153;SDS011;12312;53.362;-1.518;2023-09-30T13:34:23;12.82;;;2.55;;
24153;SDS011;12312;53.362;-1.518;2023-09-30T13:37:07;10.95;;;2.60;;
24153;SDS011;12312;53.362;-1.518;2023-09-30T13:39:51;6.88;;;2.45;;
24153;SDS011;12312;53.362;-1.518;2023-09-30T13:42:35;10.70;;;3.47;;
24153;SDS011;12312;53.362;-1.518;2023-09-30T13:45:19;8.30;;;3.13;;
24153;SDS011;12312;53.362;-1.518;2023-09-30T13:48:03;10.63;;;3.40;;
24153;SDS011;12312;53.362;-1.518;2023-09-30T13:50:48;10.68;;;2.95;;
24153;SDS011;12312;53.362;-1.518;2023-09-30T13:53:32;10.48;;;3.35;;
24153;SDS011;12312;53.362;-1.518;2023-09-30T13:56:16;8.93;;;2.83;;
24153;SDS011;12312;53.362;-1.518;2023-09-30T13:59:00;8.63;;;2.88;;
24153;SDS011;12312;53.362;-1.518;2023-09-30T14:01:45;9.65;;;2.72;;
24153;SDS011;12312;53.362;-1.518;2023-09-30T14:04:32;10.10;;;2.72;;
24153;SDS011;12312;53.362;-1.518;2023-09-30T14:07:15;6.28;;;2.60;;
24153;SDS011;12312;53.362;-1.518;2023-09-30T14:10:03;8.90;;;2.70;;
24153;SDS011;12312;53.362;-1.518;2023-09-30T14:12:48;10.35;;;3.33;;
24153;SDS011;12312;53.362;-1.518;2023-09-30T14:15:32;5.07;;;2.35;;
24153;SDS011;12312;53.362;-1.518;2023-09-30T14:18:16;9.60;;;2.22;;
24153;SDS011;12312;53.362;-1.518;2023-09-30T14:21:00;11.73;;;2.60;;
24153;SDS011;12312;53.362;-1.518;2023-09-30T14:23:44;4.32;;;1.98;;
24153;SDS011;12312;53.362;-1.518;2023-09-30T14:26:28;5.57;;;2.20;;
24153;SDS011;12312;53.362;-1.518;2023-09-30T14:29:12;5.18;;;1.80;;
24153;SDS011;12312;53.362;-1.518;2023-09-30T14:31:56;6.22;;;2.00;;
24153;SDS011;12312;53.362;-1.518;2023-09-30T14:34:41;7.55;;;2.10;;
24153;SDS011;12312;53.362;-1.518;2023-09-30T14:37:25;7.72;;;1.98;;
24153;SDS011;12312;53.362;-1.518;2023-09-30T14:40:10;4.78;;;1.83;;
24153;SDS011;12312;53.362;-1.518;2023-09-30T14:42:54;5.28;;;1.80;;
24153;SDS011;12312;53.362;-1.518;2023-09-30T14:45:39;7.35;;;1.83;;
24153;SDS011;12312;53.362;-1.518;2023-09-30T14:48:23;12.45;;;2.60;;
24153;SDS011;12312;53.362;-1.518;2023-09-30T14:51:07;7.90;;;1.80;;
24153;SDS011;12312;53.362;-1.518;2023-09-30T14:53:51;4.70;;;1.85;;
24153;SDS011;12312;53.362;-1.518;2023-09-30T14:56:35;4.47;;;1.50;;
24153;SDS011;12312;53.362;-1.518;2023-09-30T14:59:20;4.70;;;1.60;;
24153;SDS011;12312;53.362;-1.518;2023-09-30T15:02:04;7.10;;;2.08;;
24153;SDS011;12312;53.362;-1.518;2023-09-30T15:04:48;8.18;;;2.22;;
24153;SDS011;12312;53.362;-1.518;2023-09-30T15:07:32;4.80;;;1.67;;
24153;SDS011;12312;53.362;-1.518;2023-09-30T15:10:16;4.63;;;1.95;;
24153;SDS011;12312;53.362;-1.518;2023-09-30T15:13:00;5.70;;;2.03;;
24153;SDS011;12312;53.362;-1.518;2023-09-30T15:15:44;7.43;;;1.70;;
24153;SDS011;12312;53.362;-1.518;2023-09-30T15:18:28;4.28;;;1.50;;
24153;SDS011;12312;53.362;-1.518;2023-09-30T15:21:13;2.97;;;1.40;;
24153;SDS011;12312;53.362;-1.518;2023-09-30T15:23:58;5.75;;;2.40;;
24153;SDS011;12312;53.362;-1.518;2023-09-30T15:26:43;7.53;;;2.03;;
24153;SDS011;12312;53.362;-1.518;2023-09-30T15:29:28;3.22;;;1.33;;
24153;SDS011;12312;53.362;-1.518;2023-09-30T15:32:12;4.10;;;1.40;;
24153;SDS011;12312;53.362;-1.518;2023-09-30T15:34:56;4.47;;;1.38;;
24153;SDS011;12312;53.362;-1.518;2023-09-30T15:37:40;6.53;;;2.10;;
24153;SDS011;12312;53.362;-1.518;2023-09-30T15:40:24;4.25;;;1.55;;
24153;SDS011;12312;53.362;-1.518;2023-09-30T15:43:08;7.28;;;1.75;;
24153;SDS011;12312;53.362;-1.518;2023-09-30T15:45:52;3.95;;;2.20;;
24153;SDS011;12312;53.362;-1.518;2023-09-30T15:48:39;7.05;;;2.00;;
24153;SDS011;12312;53.362;-1.518;2023-09-30T15:51:23;4.07;;;1.80;;
24153;SDS011;12312;53.362;-1.518;2023-09-30T15:54:08;7.32;;;2.35;;
24153;SDS011;12312;53.362;-1.518;2023-09-30T15:56:52;6.38;;;2.35;;
24153;SDS011;12312;53.362;-1.518;2023-09-30T15:59:36;7.20;;;2.80;;
24153;SDS011;12312;53.362;-1.518;2023-09-30T16:02:20;6.63;;;3.50;;
24153;SDS011;12312;53.362;-1.518;2023-09-30T16:05:04;6.40;;;2.35;;
24153;SDS011;12312;53.362;-1.518;2023-09-30T16:07:50;6.13;;;2.35;;
24153;SDS011;12312;53.362;-1.518;2023-09-30T16:10:34;11.45;;;3.75;;
24153;SDS011;12312;53.362;-1.518;2023-09-30T16:13:19;9.80;;;4.25;;
24153;SDS011;12312;53.362;-1.518;2023-09-30T16:16:03;9.02;;;3.38;;
24153;SDS011;12312;53.362;-1.518;2023-09-30T16:18:47;10.02;;;4.03;;
24153;SDS011;12312;53.362;-1.518;2023-09-30T16:21:31;11.27;;;3.80;;
24153;SDS011;12312;53.362;-1.518;2023-09-30T16:24:15;10.50;;;4.55;;
24153;SDS011;12312;53.362;-1.518;2023-09-30T16:26:59;10.95;;;4.45;;
24153;SDS011;12312;53.362;-1.518;2023-09-30T16:29:44;8.20;;;4.43;;
24153;SDS011;12312;53.362;-1.518;2023-09-30T16:32:28;9.80;;;4.20;;
24153;SDS011;12312;53.362;-1.518;2023-09-30T16:35:15;12.60;;;4.53;;
24153;SDS011;12312;53.362;-1.518;2023-09-30T16:37:59;9.82;;;4.30;;
24153;SDS011;12312;53.362;-1.518;2023-09-30T16:40:46;9.25;;;4.10;;
24153;SDS011;12312;53.362;-1.518;2023-09-30T16:43:31;11.85;;;4.50;;
24153;SDS011;12312;53.362;-1.518;2023-09-30T16:46:15;14.93;;;4.60;;